createdAt,value
2018-08-22T00:04:53.062Z,21.05
2018-08-22T00:09:55.740Z,21.01
2018-08-22T00:14:57.829Z,21.02
2018-08-22T00:20:00.144Z,20.98
2018-08-22T00:25:02.244Z,20.95
2018-08-22T00:30:04.631Z,20.96
2018-08-22T00:35:06.753Z,20.97
2018-08-22T00:40:08.857Z,20.93
2018-08-22T00:45:10.982Z,20.90
2018-08-22T00:50:13.071Z,20.89
2018-08-22T00:55:15.176Z,20.85
2018-08-22T01:00:17.325Z,20.82
2018-08-22T01:05:19.439Z,20.80
2018-08-22T01:10:21.546Z,20.66
2018-08-22T01:15:23.630Z,20.73
2018-08-22T01:20:25.760Z,20.65
2018-08-22T01:25:27.882Z,20.58
2018-08-22T01:30:30.013Z,20.57
2018-08-22T01:35:32.116Z,20.52
2018-08-22T01:40:34.260Z,20.52
2018-08-22T01:45:36.382Z,20.53
2018-08-22T01:50:38.494Z,20.48
2018-08-22T01:55:40.606Z,20.42
2018-08-22T02:00:42.844Z,20.24
2018-08-22T02:05:44.968Z,20.23
2018-08-22T02:10:47.070Z,20.27
2018-08-22T02:15:49.203Z,20.26
2018-08-22T02:20:51.397Z,20.24
2018-08-22T02:25:53.494Z,20.19
2018-08-22T02:30:55.635Z,20.16
2018-08-22T02:35:57.728Z,20.16
2018-08-22T02:40:59.854Z,20.13
2018-08-22T02:46:01.985Z,20.09
2018-08-22T02:51:04.093Z,20.07
2018-08-22T02:56:06.229Z,20.05
2018-08-22T03:01:08.342Z,20.01
2018-08-22T03:06:10.437Z,19.97
2018-08-22T03:11:12.588Z,19.94
2018-08-22T03:16:14.719Z,19.97
2018-08-22T03:21:16.825Z,19.92
2018-08-22T03:26:18.921Z,19.92
2018-08-22T03:31:21.265Z,19.92
2018-08-22T03:36:23.362Z,19.89
2018-08-22T03:41:25.484Z,19.88
2018-08-22T03:46:27.590Z,19.88
2018-08-22T03:51:29.748Z,19.85
2018-08-22T03:56:31.858Z,19.80
2018-08-22T04:01:34.031Z,19.65
2018-08-22T04:06:36.123Z,19.68
2018-08-22T04:11:38.200Z,19.70
2018-08-22T04:16:40.294Z,19.70
2018-08-22T04:21:42.437Z,19.73
2018-08-22T04:26:44.534Z,19.78
2018-08-22T04:31:46.638Z,19.70
2018-08-22T04:36:48.747Z,19.82
2018-08-22T04:41:50.860Z,19.80
2018-08-22T04:46:52.975Z,19.82
2018-08-22T04:51:55.086Z,19.84
2018-08-22T04:56:57.212Z,19.83
2018-08-22T05:01:59.355Z,19.85
2018-08-22T05:07:01.503Z,19.99
2018-08-22T05:12:03.640Z,20.40
2018-08-22T05:17:05.736Z,20.56
2018-08-22T05:22:07.865Z,20.44
2018-08-22T05:27:10.005Z,20.41
2018-08-22T05:32:12.131Z,20.39
2018-08-22T05:37:14.246Z,20.39
2018-08-22T05:42:16.364Z,20.22
2018-08-22T05:47:18.462Z,20.18
2018-08-22T05:52:20.565Z,20.25
2018-08-22T05:57:22.690Z,20.27
2018-08-22T06:02:24.806Z,20.27
2018-08-22T06:07:26.939Z,20.35
2018-08-22T06:12:29.059Z,20.45
2018-08-22T06:17:31.154Z,20.60
2018-08-22T06:22:33.304Z,20.86
2018-08-22T06:27:35.407Z,21.03
2018-08-22T06:32:37.547Z,21.02
2018-08-22T06:37:39.668Z,21.11
2018-08-22T06:42:41.768Z,21.21
2018-08-22T06:47:43.871Z,21.34
2018-08-22T06:52:46.004Z,21.39
2018-08-22T06:57:48.173Z,21.38
2018-08-22T07:02:50.304Z,21.54
2018-08-22T07:07:52.460Z,21.67
2018-08-22T07:12:54.553Z,21.76
2018-08-22T07:17:56.670Z,21.80
2018-08-22T07:22:58.805Z,21.67
2018-08-22T07:28:01.156Z,21.83
2018-08-22T07:33:03.422Z,22.04
2018-08-22T07:38:05.535Z,22.16
2018-08-22T07:43:08.010Z,22.25
2018-08-22T07:48:10.144Z,22.28
2018-08-22T07:53:12.295Z,22.40
2018-08-22T07:58:14.474Z,22.55
2018-08-22T08:03:16.640Z,22.62
2018-08-22T08:08:18.775Z,22.65
2018-08-22T08:13:26.974Z,22.76
2018-08-22T08:18:29.106Z,22.89
2018-08-22T08:23:31.258Z,22.95
2018-08-22T08:28:33.327Z,23.05
2018-08-22T08:33:35.535Z,23.18
2018-08-22T08:38:37.715Z,23.32
2018-08-22T08:43:39.854Z,23.39
2018-08-22T08:48:41.963Z,23.48
2018-08-22T08:53:44.118Z,23.50
2018-08-22T08:58:46.234Z,23.58
2018-08-22T09:03:48.410Z,23.65
2018-08-22T09:08:50.550Z,23.71
2018-08-22T09:13:55.693Z,23.78
2018-08-22T09:18:57.823Z,23.93
2018-08-22T09:23:59.996Z,24.03
2018-08-22T09:29:02.308Z,24.03
2018-08-22T09:34:04.618Z,24.09
2018-08-22T09:39:09.633Z,24.21
2018-08-22T09:44:11.758Z,24.35
2018-08-22T09:49:13.903Z,24.49
2018-08-22T09:54:16.053Z,24.59
2018-08-22T09:59:18.163Z,24.64
2018-08-22T10:04:20.334Z,24.62
2018-08-22T10:09:23.606Z,24.71
2018-08-22T10:14:25.754Z,24.77
2018-08-22T10:19:27.863Z,24.86
2018-08-22T10:24:30.036Z,25.07
2018-08-22T10:29:32.335Z,25.16
2018-08-22T10:34:34.504Z,25.36
2018-08-22T10:39:36.769Z,25.47
2018-08-22T10:44:38.856Z,25.67
2018-08-22T10:49:40.990Z,25.90
2018-08-22T10:54:43.161Z,26.04
2018-08-22T10:59:45.282Z,26.19
2018-08-22T11:04:47.418Z,26.45
2018-08-22T11:09:49.569Z,26.65
2018-08-22T11:14:51.668Z,26.84
2018-08-22T11:19:53.866Z,27.14
2018-08-22T11:25:07.583Z,27.44
2018-08-22T11:30:21.188Z,27.63
2018-08-22T11:35:22.413Z,27.88
2018-08-22T11:40:24.567Z,28.14
2018-08-22T11:45:26.775Z,26.19
2018-08-22T11:50:29.015Z,28.53
2018-08-22T11:55:31.174Z,28.84
2018-08-22T12:00:33.364Z,29.12
2018-08-22T12:05:35.564Z,29.36
2018-08-22T12:10:37.808Z,29.51
2018-08-22T12:15:39.917Z,29.78
2018-08-22T12:20:42.062Z,29.74
2018-08-22T12:25:44.532Z,29.99
2018-08-22T12:30:46.689Z,30.45
2018-08-22T12:35:49.088Z,30.83
2018-08-22T12:40:51.227Z,31.13
2018-08-22T12:45:53.588Z,31.38
2018-08-22T12:50:55.722Z,31.45
2018-08-22T12:55:57.932Z,31.69
2018-08-22T13:01:00.066Z,31.88
2018-08-22T13:06:02.221Z,32.31
2018-08-22T13:11:04.481Z,32.41
2018-08-22T13:16:06.620Z,32.41
2018-08-22T13:21:08.751Z,32.71
2018-08-22T13:26:10.922Z,33.04
2018-08-22T13:31:13.102Z,33.21
2018-08-22T13:36:15.267Z,33.44
2018-08-22T13:41:17.379Z,33.79
2018-08-22T13:46:19.515Z,33.75
2018-08-22T13:51:21.690Z,33.93
2018-08-22T13:56:23.843Z,33.91
2018-08-22T14:01:26.066Z,33.73
2018-08-22T14:06:28.215Z,33.68
2018-08-22T14:11:30.384Z,33.47
2018-08-22T14:16:32.558Z,33.78
2018-08-22T14:21:34.714Z,33.76
2018-08-22T14:26:36.853Z,33.74
2018-08-22T14:31:39.034Z,33.58
2018-08-22T14:36:41.185Z,33.83
2018-08-22T14:41:43.350Z,34.29
2018-08-22T14:46:57.988Z,34.45
2018-08-22T14:52:08.646Z,34.80
2018-08-22T14:57:16.402Z,34.70
2018-08-22T15:02:26.161Z,34.93
2018-08-22T15:07:32.170Z,35.06
2018-08-22T15:18:21.798Z,33.79
2018-08-22T15:23:41.723Z,34.05
2018-08-22T15:29:20.635Z,34.24
2018-08-22T15:34:50.596Z,34.54
2018-08-22T15:39:53.448Z,34.74
2018-08-22T15:44:55.601Z,34.91
2018-08-22T15:49:57.720Z,35.30
2018-08-22T15:55:15.282Z,35.78
2018-08-22T16:00:44.169Z,36.19
2018-08-22T16:05:47.203Z,36.32
2018-08-22T16:10:49.495Z,36.43
2018-08-22T16:15:52.868Z,36.39
2018-08-22T16:20:57.159Z,36.14
2018-08-22T16:26:00.509Z,35.90
2018-08-22T16:31:02.717Z,35.95
2018-08-22T16:36:04.864Z,36.16
2018-08-22T16:41:07.008Z,35.90
2018-08-22T16:46:11.996Z,34.57
2018-08-22T16:51:14.169Z,33.02
2018-08-22T16:56:16.333Z,32.03
2018-08-22T17:01:18.571Z,31.32
2018-08-22T17:06:20.743Z,30.87
2018-08-22T17:11:22.928Z,30.39
2018-08-22T17:16:25.420Z,29.95
2018-08-22T17:21:27.619Z,29.57
2018-08-22T17:26:29.818Z,29.20
2018-08-22T17:31:32.081Z,28.91
2018-08-22T17:36:34.259Z,28.68
2018-08-22T17:41:36.469Z,28.47
2018-08-22T17:46:40.765Z,28.28
2018-08-22T17:52:04.371Z,28.09
2018-08-22T17:57:12.386Z,27.91
2018-08-22T18:02:14.544Z,27.79
2018-08-22T18:07:17.183Z,27.66
2018-08-22T18:12:22.875Z,27.52
2018-08-22T18:17:25.042Z,27.40
2018-08-22T18:22:29.163Z,27.27
2018-08-22T18:27:31.374Z,24.72
2018-08-22T18:32:33.582Z,27.06
2018-08-22T18:37:35.940Z,26.96
2018-08-22T18:42:38.518Z,26.89
2018-08-22T18:47:40.727Z,26.81
2018-08-22T18:52:46.961Z,26.74
2018-08-22T18:57:49.225Z,26.67
2018-08-22T19:02:53.192Z,26.62
2018-08-22T19:08:02.713Z,26.55
2018-08-22T19:13:10.628Z,26.49
2018-08-22T19:18:12.785Z,26.43
2018-08-22T19:23:20.014Z,26.38
2018-08-22T19:28:28.042Z,26.38
2018-08-22T19:33:36.848Z,26.39
2018-08-22T19:38:45.381Z,26.36
2018-08-22T19:43:57.537Z,26.30
2018-08-22T19:49:05.913Z,26.28
2018-08-22T19:54:17.600Z,26.20
2018-08-22T19:59:21.441Z,26.19
2018-08-22T20:04:25.150Z,26.16
2018-08-22T20:09:30.018Z,26.12
2018-08-22T20:14:43.757Z,26.08
2018-08-22T20:19:53.485Z,26.02
2018-08-22T20:25:03.960Z,25.95
2018-08-22T20:30:15.123Z,25.95
2018-08-22T20:35:31.170Z,25.88
2018-08-22T20:40:39.213Z,25.84
2018-08-22T20:45:48.194Z,25.81
2018-08-22T20:50:55.098Z,25.80
2018-08-22T20:56:03.028Z,25.64
2018-08-22T21:01:10.396Z,25.57
2018-08-22T21:06:17.203Z,25.52
2018-08-22T21:11:26.113Z,25.34
2018-08-22T21:16:31.077Z,25.37
2018-08-22T21:21:34.945Z,25.28
2018-08-22T21:26:42.093Z,25.21
2018-08-22T21:31:46.039Z,25.12
2018-08-22T21:36:50.263Z,25.08
2018-08-22T21:41:55.615Z,25.00
2018-08-22T21:47:05.705Z,24.94
2018-08-22T21:52:08.202Z,24.87
2018-08-22T21:57:10.373Z,24.85
2018-08-22T22:02:12.530Z,24.82
2018-08-22T22:07:16.299Z,24.76
2018-08-22T22:12:25.357Z,24.73
2018-08-22T22:17:28.887Z,24.67
2018-08-22T22:22:31.670Z,24.67
2018-08-22T22:27:35.424Z,24.62
2018-08-22T22:32:38.146Z,24.61
2018-08-22T22:37:44.372Z,24.57
2018-08-22T22:42:50.381Z,24.53
2018-08-22T22:47:56.753Z,24.52
2018-08-22T22:53:05.416Z,24.49
2018-08-22T22:58:11.951Z,24.42
2018-08-22T23:03:18.560Z,24.40
2018-08-22T23:08:26.439Z,24.36
2018-08-22T23:13:33.233Z,24.36
2018-08-22T23:18:39.275Z,24.33
2018-08-22T23:23:46.222Z,24.31
2018-08-22T23:28:52.623Z,24.19
2018-08-22T23:33:57.880Z,24.18
2018-08-22T23:39:00.322Z,24.16
2018-08-22T23:44:02.495Z,24.14
2018-08-22T23:49:07.552Z,24.10
2018-08-22T23:54:13.982Z,24.09
2018-08-22T23:59:21.629Z,24.05
